Time;durP1;ratioP1;P1;durP2;ratioP2;P2;SDS_P1;SDS_P2;PMS_P1;PMS_P2;Temp;Humidity;BMP_temperature;BMP_pressure;BME280_temperature;BME280_humidity;BME280_pressure;Samples;Min_cycle;Max_cycle;Signal;HPM_P1;HPM_P2
2024/03/24 00:00:14;;;;;;;;;;;11.60;74.60;;;;;;5047136;27;82591;-47
2024/03/24 00:02:40;;;;;;;;;;;11.60;74.50;;;;;;5045002;28;82196;-47
2024/03/24 00:05:06;;;;;;;;;;;11.60;74.50;;;;;;5047100;27;82858;-46
2024/03/24 00:07:31;;;;;;;;;;;11.60;74.50;;;;;;5046176;28;83585;-46
2024/03/24 00:09:57;;;;;;;;;;;11.60;74.50;;;;;;5045395;27;82082;-46
2024/03/24 00:12:23;;;;;;;;;;;11.60;74.50;;;;;;5046376;27;82731;-48
2024/03/24 00:14:48;;;;;;;;;;;11.60;74.40;;;;;;5046854;27;81341;-47
2024/03/24 00:17:14;;;;;;;;;;;11.60;74.40;;;;;;5044738;28;82092;-47
2024/03/24 00:19:39;;;;;;;;;;;11.60;74.50;;;;;;5043986;28;82678;-46
2024/03/24 00:22:05;;;;;;;;;;;11.60;74.50;;;;;;5043948;27;82980;-47
2024/03/24 00:24:31;;;;;;;;;;;11.60;74.50;;;;;;5045092;27;83986;-48
2024/03/24 00:26:57;;;;;;;;;;;11.60;74.50;;;;;;5046894;28;82535;-47
2024/03/24 00:29:22;;;;;;;;;;;11.60;74.50;;;;;;5043994;27;82058;-47
2024/03/24 00:31:48;;;;;;;;;;;11.60;74.50;;;;;;5045587;27;82125;-47
2024/03/24 00:34:13;;;;;;;;;;;11.50;74.40;;;;;;5049567;27;83339;-47
2024/03/24 00:36:39;;;;;;;;;;;11.60;74.50;;;;;;5044533;27;82006;-47
2024/03/24 00:39:07;;;;;;;;;;;11.50;74.40;;;;;;5049078;28;81816;-47
2024/03/24 00:41:33;;;;;;;;;;;11.50;74.50;;;;;;5049478;27;82703;-47
2024/03/24 00:43:58;;;;;;;;;;;11.50;74.50;;;;;;5050078;27;82425;-47
2024/03/24 00:46:24;;;;;;;;;;;11.50;74.50;;;;;;5050082;27;83200;-47
2024/03/24 00:48:52;;;;;;;;;;;11.50;74.50;;;;;;5050445;28;81935;-48
2024/03/24 00:51:18;;;;;;;;;;;11.50;74.50;;;;;;5047694;27;82695;-47
2024/03/24 00:53:44;;;;;;;;;;;11.50;74.50;;;;;;5050589;27;81979;-47
2024/03/24 00:56:09;;;;;;;;;;;11.50;74.50;;;;;;5049862;27;82184;-47
2024/03/24 00:58:35;;;;;;;;;;;11.50;74.50;;;;;;5047130;27;82359;-47
2024/03/24 01:01:00;;;;;;;;;;;11.50;74.50;;;;;;5049150;27;81967;-46
2024/03/24 01:03:26;;;;;;;;;;;11.50;74.50;;;;;;5048836;28;81898;-47
2024/03/24 01:05:51;;;;;;;;;;;11.50;74.50;;;;;;5048569;27;82549;-47
2024/03/24 01:08:17;;;;;;;;;;;11.50;74.50;;;;;;5050288;28;82588;-47
2024/03/24 01:10:43;;;;;;;;;;;11.50;74.50;;;;;;5047422;27;83654;-47
2024/03/24 01:13:08;;;;;;;;;;;11.40;74.50;;;;;;5047258;28;82750;-47
2024/03/24 01:15:34;;;;;;;;;;;11.50;74.60;;;;;;5052269;27;82361;-47
2024/03/24 01:17:59;;;;;;;;;;;11.40;74.50;;;;;;5049734;27;82557;-47
2024/03/24 01:20:25;;;;;;;;;;;11.40;74.50;;;;;;5049662;27;81941;-47
2024/03/24 01:22:51;;;;;;;;;;;11.40;74.50;;;;;;5048476;27;81938;-47
2024/03/24 01:25:17;;;;;;;;;;;11.40;74.60;;;;;;5048044;27;82263;-46
2024/03/24 01:27:43;;;;;;;;;;;11.40;74.60;;;;;;5049272;27;81500;-48
2024/03/24 01:30:10;;;;;;;;;;;11.40;74.60;;;;;;5045068;28;81885;-47
2024/03/24 01:32:35;;;;;;;;;;;11.40;74.60;;;;;;5049507;27;82132;-47
2024/03/24 01:35:01;;;;;;;;;;;11.40;74.70;;;;;;5049169;28;82941;-46
2024/03/24 01:37:27;;;;;;;;;;;11.40;74.70;;;;;;5052156;28;82432;-46
2024/03/24 01:39:52;;;;;;;;;;;11.30;74.60;;;;;;5047834;27;81715;-47
2024/03/24 01:42:18;;;;;;;;;;;11.30;74.60;;;;;;5049196;28;82301;-47
2024/03/24 01:44:43;;;;;;;;;;;11.30;74.70;;;;;;5048333;27;83548;-48
2024/03/24 01:47:11;;;;;;;;;;;11.30;74.60;;;;;;5045337;27;81973;-48
2024/03/24 01:49:38;;;;;;;;;;;11.40;74.80;;;;;;5046074;27;82793;-46
2024/03/24 01:52:05;;;;;;;;;;;11.40;74.80;;;;;;5048546;28;82493;-47
2024/03/24 01:54:31;;;;;;;;;;;11.30;74.70;;;;;;5046352;28;81836;-47
2024/03/24 01:56:57;;;;;;;;;;;11.30;74.70;;;;;;5047485;27;82679;-48
2024/03/24 01:59:22;;;;;;;;;;;11.30;74.70;;;;;;5050691;28;84283;-47
2024/03/24 02:01:48;;;;;;;;;;;11.30;74.70;;;;;;5048916;28;82501;-46
2024/03/24 02:04:14;;;;;;;;;;;11.30;74.80;;;;;;5047361;27;82415;-46
2024/03/24 02:06:39;;;;;;;;;;;11.30;74.70;;;;;;5048633;28;81937;-50
2024/03/24 02:09:06;;;;;;;;;;;11.30;74.80;;;;;;5047679;28;81995;-47
2024/03/24 02:11:31;;;;;;;;;;;11.30;74.80;;;;;;5045336;27;83393;-47
2024/03/24 02:14:00;;;;;;;;;;;11.30;74.90;;;;;;5049131;27;82264;-46
2024/03/24 02:16:26;;;;;;;;;;;11.30;74.80;;;;;;5046225;28;82066;-47
2024/03/24 02:18:51;;;;;;;;;;;11.30;74.90;;;;;;5047203;28;83817;-47
2024/03/24 02:21:17;;;;;;;;;;;11.20;74.80;;;;;;5048035;28;82432;-47
2024/03/24 02:23:42;;;;;;;;;;;11.20;74.90;;;;;;5042464;28;83650;-48
2024/03/24 02:26:08;;;;;;;;;;;11.20;74.80;;;;;;5048736;27;82244;-47
2024/03/24 02:28:34;;;;;;;;;;;11.20;74.90;;;;;;5048803;27;82974;-47
2024/03/24 02:31:00;;;;;;;;;;;11.20;74.90;;;;;;5048120;27;83659;-47
2024/03/24 02:33:26;;;;;;;;;;;11.20;74.80;;;;;;5048534;27;82018;-47
2024/03/24 02:35:52;;;;;;;;;;;11.20;74.90;;;;;;5048308;27;81920;-48
2024/03/24 02:38:18;;;;;;;;;;;11.20;74.90;;;;;;5047758;28;82690;-48
2024/03/24 02:40:47;;;;;;;;;;;11.20;74.90;;;;;;5042706;27;81345;-48
2024/03/24 02:43:12;;;;;;;;;;;11.20;75.00;;;;;;5045245;28;82399;-47
2024/03/24 02:45:38;;;;;;;;;;;11.20;74.90;;;;;;5043720;28;82584;-47
2024/03/24 02:48:04;;;;;;;;;;;11.10;74.90;;;;;;5047532;27;83104;-46
2024/03/24 02:50:29;;;;;;;;;;;11.20;75.00;;;;;;5046713;27;81852;-47
2024/03/24 02:52:55;;;;;;;;;;;11.20;75.00;;;;;;5046916;27;82118;-47
2024/03/24 02:55:24;;;;;;;;;;;11.20;75.00;;;;;;5047247;28;83137;-48
2024/03/24 02:57:50;;;;;;;;;;;11.20;75.00;;;;;;5044936;27;83596;-47
2024/03/24 03:00:15;;;;;;;;;;;11.20;75.00;;;;;;5047146;27;82007;-47
2024/03/24 03:02:41;;;;;;;;;;;11.20;75.00;;;;;;5048534;27;81967;-47
2024/03/24 03:05:06;;;;;;;;;;;11.10;74.90;;;;;;5049096;28;81712;-47
2024/03/24 03:07:32;;;;;;;;;;;11.10;75.00;;;;;;5046984;27;81948;-46
2024/03/24 03:09:58;;;;;;;;;;;11.10;75.00;;;;;;5044704;27;82369;-47
2024/03/24 03:12:23;;;;;;;;;;;11.10;75.10;;;;;;5040976;28;82892;-47
2024/03/24 03:14:49;;;;;;;;;;;11.10;75.00;;;;;;5048108;28;81895;-47
2024/03/24 03:17:14;;;;;;;;;;;11.10;75.00;;;;;;5042009;28;81921;-46
2024/03/24 03:19:40;;;;;;;;;;;11.10;75.00;;;;;;5048220;27;81967;-47
2024/03/24 03:22:06;;;;;;;;;;;11.10;75.10;;;;;;5048315;27;82035;-46
2024/03/24 03:24:31;;;;;;;;;;;11.10;75.10;;;;;;5048606;27;83490;-47
2024/03/24 03:26:57;;;;;;;;;;;11.00;75.00;;;;;;5046468;28;82369;-45
2024/03/24 03:29:22;;;;;;;;;;;11.00;75.10;;;;;;5046000;28;81203;-47
2024/03/24 03:31:48;;;;;;;;;;;11.00;75.10;;;;;;5046116;27;82820;-45
2024/03/24 03:34:13;;;;;;;;;;;11.00;75.10;;;;;;5045226;28;81982;-46
2024/03/24 03:36:39;;;;;;;;;;;11.00;75.20;;;;;;5046032;27;83283;-47
2024/03/24 03:39:05;;;;;;;;;;;11.00;75.10;;;;;;5047827;27;81905;-46
2024/03/24 03:41:31;;;;;;;;;;;11.00;75.30;;;;;;5044190;27;82954;-46
2024/03/24 03:43:57;;;;;;;;;;;11.00;75.10;;;;;;5047321;27;82629;-46
2024/03/24 03:46:22;;;;;;;;;;;11.00;75.10;;;;;;5049799;28;81955;-47
2024/03/24 03:48:49;;;;;;;;;;;11.00;75.20;;;;;;5046274;28;82300;-47
2024/03/24 03:51:19;;;;;;;;;;;11.00;75.20;;;;;;5045650;27;81994;-47
2024/03/24 03:53:45;;;;;;;;;;;10.90;75.10;;;;;;5045580;28;83344;-48
2024/03/24 03:56:10;;;;;;;;;;;11.00;75.20;;;;;;5044821;27;82354;-46
2024/03/24 03:58:36;;;;;;;;;;;10.90;75.10;;;;;;5045947;27;82021;-45
2024/03/24 04:01:01;;;;;;;;;;;10.90;75.10;;;;;;5046451;28;82788;-46
2024/03/24 04:03:27;;;;;;;;;;;10.90;75.10;;;;;;5046978;27;82495;-45
2024/03/24 04:05:56;;;;;;;;;;;10.90;75.10;;;;;;5047478;28;82179;-47
2024/03/24 04:08:21;;;;;;;;;;;10.90;75.10;;;;;;5050533;27;82785;-47
2024/03/24 04:10:47;;;;;;;;;;;10.90;75.20;;;;;;5046483;27;82012;-47
2024/03/24 04:13:13;;;;;;;;;;;10.90;75.10;;;;;;5047228;28;82925;-46
2024/03/24 04:15:41;;;;;;;;;;;10.90;75.20;;;;;;5045257;28;88166;-46
2024/03/24 04:18:07;;;;;;;;;;;10.80;75.30;;;;;;5047485;27;86237;-46
2024/03/24 04:20:35;;;;;;;;;;;10.80;75.10;;;;;;5045998;28;87549;-46
2024/03/24 04:23:00;;;;;;;;;;;10.90;75.20;;;;;;5045991;27;87654;-47
2024/03/24 04:25:26;;;;;;;;;;;10.80;75.20;;;;;;5046683;28;87963;-47
2024/03/24 04:27:52;;;;;;;;;;;10.80;75.20;;;;;;5043632;27;88035;-45
2024/03/24 04:30:17;;;;;;;;;;;10.90;75.30;;;;;;5047549;28;87635;-46
2024/03/24 04:32:43;;;;;;;;;;;10.90;75.30;;;;;;5045986;28;87768;-48
2024/03/24 04:35:08;;;;;;;;;;;10.80;75.30;;;;;;5046784;27;88407;-47
2024/03/24 04:37:35;;;;;;;;;;;10.80;75.30;;;;;;5045656;27;87085;-46
2024/03/24 04:40:00;;;;;;;;;;;10.80;75.30;;;;;;5047119;27;87856;-48
2024/03/24 04:42:26;;;;;;;;;;;10.80;75.30;;;;;;5047458;27;86831;-47
2024/03/24 04:44:52;;;;;;;;;;;10.80;75.30;;;;;;5045068;28;87107;-50
2024/03/24 04:47:17;;;;;;;;;;;10.80;75.30;;;;;;5047146;27;87290;-49
2024/03/24 04:49:43;;;;;;;;;;;10.80;75.30;;;;;;5044513;27;88602;-47
2024/03/24 04:52:08;;;;;;;;;;;10.80;75.30;;;;;;5050150;28;87058;-50
2024/03/24 04:54:34;;;;;;;;;;;10.80;75.40;;;;;;5040804;27;87301;-47
2024/03/24 04:56:59;;;;;;;;;;;10.80;75.40;;;;;;5043894;28;87027;-47
2024/03/24 04:59:25;;;;;;;;;;;10.70;75.30;;;;;;5041719;28;87709;-47
2024/03/24 05:01:50;;;;;;;;;;;10.80;75.30;;;;;;5042757;28;87410;-46
2024/03/24 05:04:16;;;;;;;;;;;10.70;75.20;;;;;;5047179;28;87086;-46
2024/03/24 05:06:42;;;;;;;;;;;10.70;75.20;;;;;;5047235;27;87834;-46
2024/03/24 05:09:08;;;;;;;;;;;10.80;75.40;;;;;;5045059;28;87535;-46
2024/03/24 05:11:34;;;;;;;;;;;10.70;75.30;;;;;;5042860;28;87912;-47
2024/03/24 05:14:00;;;;;;;;;;;10.70;75.30;;;;;;5043444;28;88113;-46
2024/03/24 05:16:31;;;;;;;;;;;10.70;75.30;;;;;;5045209;27;86979;-47
2024/03/24 05:18:59;;;;;;;;;;;10.70;75.30;;;;;;5040869;28;87992;-45
2024/03/24 05:21:25;;;;;;;;;;;10.70;75.30;;;;;;5043970;27;87856;-47
2024/03/24 05:23:51;;;;;;;;;;;10.70;75.30;;;;;;5046078;27;87055;-46
2024/03/24 05:26:16;;;;;;;;;;;10.70;75.30;;;;;;5044500;27;86924;-46
2024/03/24 05:28:42;;;;;;;;;;;10.70;75.30;;;;;;5042989;28;87684;-47
2024/03/24 05:31:07;;;;;;;;;;;10.70;75.30;;;;;;5043999;28;86920;-46
2024/03/24 05:33:33;;;;;;;;;;;10.70;75.30;;;;;;5049156;28;86911;-47
2024/03/24 05:36:03;;;;;;;;;;;10.70;75.20;;;;;;5046506;27;86998;-45
2024/03/24 05:38:28;;;;;;;;;;;10.70;75.10;;;;;;5040556;28;88872;-46
2024/03/24 05:41:01;;;;;;;;;;;10.70;75.10;;;;;;5042768;28;88056;-47
2024/03/24 05:43:27;;;;;;;;;;;10.70;75.20;;;;;;5042098;28;87061;-46
2024/03/24 05:45:53;;;;;;;;;;;10.60;75.10;;;;;;5045369;28;87079;-47
2024/03/24 05:48:18;;;;;;;;;;;10.70;75.20;;;;;;5037843;27;87378;-46
2024/03/24 05:50:44;;;;;;;;;;;10.70;75.10;;;;;;5045084;27;86943;-46
2024/03/24 05:53:09;;;;;;;;;;;10.70;75.10;;;;;;5046046;28;87387;-46
2024/03/24 05:55:35;;;;;;;;;;;10.70;75.10;;;;;;5048178;27;87820;-47
2024/03/24 05:58:01;;;;;;;;;;;10.60;75.10;;;;;;5046039;28;86904;-47
2024/03/24 06:00:26;;;;;;;;;;;10.60;75.00;;;;;;5042127;28;87483;-46
2024/03/24 06:02:52;;;;;;;;;;;10.60;75.10;;;;;;5044682;28;88215;-46
2024/03/24 06:05:17;;;;;;;;;;;10.70;75.10;;;;;;5043440;27;87835;-47
2024/03/24 06:07:43;;;;;;;;;;;10.70;75.10;;;;;;5045835;28;87134;-47
2024/03/24 06:10:09;;;;;;;;;;;10.70;75.10;;;;;;5046038;27;87283;-46
2024/03/24 06:12:34;;;;;;;;;;;10.70;75.10;;;;;;5043116;28;87340;-46
2024/03/24 06:15:00;;;;;;;;;;;10.70;75.10;;;;;;5044540;27;88653;-46
2024/03/24 06:17:25;;;;;;;;;;;10.70;75.20;;;;;;5040735;28;87043;-46
2024/03/24 06:19:51;;;;;;;;;;;10.70;75.20;;;;;;5044388;28;86778;-46
2024/03/24 06:22:17;;;;;;;;;;;10.70;75.20;;;;;;5041238;27;87090;-47
2024/03/24 06:24:42;;;;;;;;;;;10.70;75.20;;;;;;5045047;27;87723;-46
2024/03/24 06:27:08;;;;;;;;;;;10.70;75.20;;;;;;5040650;27;89409;-46
2024/03/24 06:29:33;;;;;;;;;;;10.60;75.10;;;;;;5041012;28;87696;-46
2024/03/24 06:31:59;;;;;;;;;;;10.70;75.20;;;;;;5045610;27;87654;-46
2024/03/24 06:34:25;;;;;;;;;;;10.70;75.20;;;;;;5042555;27;87061;-47
2024/03/24 06:36:50;;;;;;;;;;;10.70;75.30;;;;;;5039751;28;88113;-46
2024/03/24 06:39:16;;;;;;;;;;;10.60;75.20;;;;;;5046558;28;87359;-46
2024/03/24 06:41:43;;;;;;;;;;;10.70;75.30;;;;;;5045298;28;86977;-46
2024/03/24 06:44:16;;;;;;;;;;;10.70;75.30;;;;;;5042875;27;87910;-46
2024/03/24 06:46:43;;;;;;;;;;;10.70;75.30;;;;;;5043350;28;87535;-46
2024/03/24 06:49:08;;;;;;;;;;;10.70;75.40;;;;;;5044557;27;87282;-47
2024/03/24 06:51:34;;;;;;;;;;;10.70;75.30;;;;;;5041778;28;88548;-47
2024/03/24 06:54:00;;;;;;;;;;;10.70;75.30;;;;;;5044576;27;88635;-46
2024/03/24 06:56:25;;;;;;;;;;;10.70;75.40;;;;;;5040008;27;87076;-46
2024/03/24 06:58:51;;;;;;;;;;;10.70;75.50;;;;;;5043416;28;87016;-46
2024/03/24 07:01:18;;;;;;;;;;;10.60;75.30;;;;;;5045774;28;87633;-47
2024/03/24 07:03:44;;;;;;;;;;;10.70;75.40;;;;;;5044554;27;87858;-45
2024/03/24 07:06:09;;;;;;;;;;;10.70;75.40;;;;;;5040502;27;87492;-46
2024/03/24 07:08:35;;;;;;;;;;;10.70;75.40;;;;;;5044935;27;87611;-47
2024/03/24 07:11:01;;;;;;;;;;;10.60;75.40;;;;;;5044110;27;86990;-47
2024/03/24 07:13:26;;;;;;;;;;;10.70;75.40;;;;;;5043679;27;88394;-47
2024/03/24 07:15:52;;;;;;;;;;;10.70;75.40;;;;;;5043942;28;87960;-47
2024/03/24 07:18:17;;;;;;;;;;;10.70;75.40;;;;;;5041864;27;87884;-48
2024/03/24 07:20:43;;;;;;;;;;;10.70;75.40;;;;;;5044607;27;87786;-48
2024/03/24 07:23:08;;;;;;;;;;;10.70;75.50;;;;;;5044764;27;87190;-47
2024/03/24 07:25:34;;;;;;;;;;;10.70;75.50;;;;;;5042327;28;88166;-47
2024/03/24 07:27:59;;;;;;;;;;;10.70;75.40;;;;;;5041227;28;87014;-48
2024/03/24 07:30:25;;;;;;;;;;;10.70;75.40;;;;;;5041017;28;87002;-46
2024/03/24 07:32:51;;;;;;;;;;;10.70;75.30;;;;;;5044660;27;87797;-47
2024/03/24 07:35:16;;;;;;;;;;;10.70;75.30;;;;;;5042544;27;87787;-47
2024/03/24 07:37:42;;;;;;;;;;;10.70;75.40;;;;;;5043996;27;87947;-48
2024/03/24 07:40:08;;;;;;;;;;;10.70;75.40;;;;;;5045308;27;89806;-47
2024/03/24 07:42:34;;;;;;;;;;;10.70;75.40;;;;;;5047663;27;87869;-45
2024/03/24 07:45:00;;;;;;;;;;;10.70;75.30;;;;;;5042723;27;88785;-45
2024/03/24 07:47:26;;;;;;;;;;;10.70;75.40;;;;;;5044520;27;86873;-47
2024/03/24 07:49:54;;;;;;;;;;;10.70;75.40;;;;;;5044254;27;87982;-49
2024/03/24 07:52:20;;;;;;;;;;;10.70;75.40;;;;;;5043469;27;88440;-46
2024/03/24 07:54:46;;;;;;;;;;;10.70;75.40;;;;;;5040494;28;87039;-46
2024/03/24 07:57:11;;;;;;;;;;;10.70;75.30;;;;;;5043703;27;86720;-47
2024/03/24 07:59:37;;;;;;;;;;;10.70;75.40;;;;;;5043739;27;88541;-46
2024/03/24 08:02:02;;;;;;;;;;;10.80;75.50;;;;;;5042408;28;87549;-46
2024/03/24 08:04:28;;;;;;;;;;;10.70;75.30;;;;;;5046560;27;88572;-45
2024/03/24 08:06:53;;;;;;;;;;;10.70;75.30;;;;;;5042733;28;87065;-46
2024/03/24 08:09:19;;;;;;;;;;;10.70;75.30;;;;;;5044121;27;87157;-46
2024/03/24 08:11:44;;;;;;;;;;;10.80;75.30;;;;;;5040321;27;88280;-46
2024/03/24 08:14:10;;;;;;;;;;;10.70;75.30;;;;;;5042801;28;87059;-46
2024/03/24 08:16:36;;;;;;;;;;;10.80;75.30;;;;;;5041531;28;87376;-45
2024/03/24 08:19:01;;;;;;;;;;;10.80;75.30;;;;;;5043613;27;88534;-46
2024/03/24 08:21:27;;;;;;;;;;;10.70;75.30;;;;;;5042370;27;86339;-47
2024/03/24 08:23:52;;;;;;;;;;;10.80;75.30;;;;;;5042228;28;87055;-46
2024/03/24 08:26:18;;;;;;;;;;;10.80;75.40;;;;;;5046059;28;87599;-47
2024/03/24 08:28:43;;;;;;;;;;;10.80;75.50;;;;;;5042697;27;87945;-46
2024/03/24 08:31:09;;;;;;;;;;;10.80;75.50;;;;;;5043077;27;87755;-46
2024/03/24 08:33:34;;;;;;;;;;;10.80;75.50;;;;;;5041341;28;87387;-47
2024/03/24 08:36:00;;;;;;;;;;;10.80;75.50;;;;;;5044086;28;87055;-45
2024/03/24 08:38:26;;;;;;;;;;;10.80;75.50;;;;;;5042613;28;87776;-46
2024/03/24 08:40:51;;;;;;;;;;;10.80;75.40;;;;;;5041367;27;87021;-47
2024/03/24 08:43:17;;;;;;;;;;;10.90;75.50;;;;;;5043916;27;87015;-47
2024/03/24 08:45:43;;;;;;;;;;;10.80;75.50;;;;;;5041249;28;87213;-47
2024/03/24 08:48:08;;;;;;;;;;;10.80;75.60;;;;;;5042466;28;87674;-46
2024/03/24 08:50:34;;;;;;;;;;;10.80;75.60;;;;;;5041882;28;87695;-46
2024/03/24 08:52:59;;;;;;;;;;;10.80;76.30;;;;;;5040366;28;87887;-48
2024/03/24 08:55:25;;;;;;;;;;;10.90;75.70;;;;;;5040751;28;87390;-47
2024/03/24 08:57:51;;;;;;;;;;;10.90;75.60;;;;;;5043592;27;88539;-45
2024/03/24 09:00:17;;;;;;;;;;;10.90;75.80;;;;;;5047228;27;86954;-47
2024/03/24 09:02:42;;;;;;;;;;;10.90;75.70;;;;;;5043472;27;87787;-47
2024/03/24 09:05:08;;;;;;;;;;;10.90;75.80;;;;;;5045791;27;88403;-47
2024/03/24 09:07:34;;;;;;;;;;;10.90;75.80;;;;;;5046393;27;87204;-47
2024/03/24 09:10:00;;;;;;;;;;;10.90;75.80;;;;;;5050223;28;86785;-47
2024/03/24 09:12:25;;;;;;;;;;;10.90;75.80;;;;;;5047174;28;87005;-46
2024/03/24 09:14:51;;;;;;;;;;;11.00;75.90;;;;;;5046345;27;87192;-46
2024/03/24 09:17:16;;;;;;;;;;;10.90;75.90;;;;;;5045272;27;88550;-46
2024/03/24 09:19:42;;;;;;;;;;;11.00;75.90;;;;;;5045856;27;87100;-47
2024/03/24 09:22:08;;;;;;;;;;;11.00;75.90;;;;;;5044697;28;86998;-47
2024/03/24 09:24:33;;;;;;;;;;;10.90;75.90;;;;;;5044645;27;87350;-47
2024/03/24 09:27:00;;;;;;;;;;;11.00;76.00;;;;;;5046799;27;87224;-46
2024/03/24 09:29:25;;;;;;;;;;;11.00;75.90;;;;;;5049101;27;87144;-46
2024/03/24 09:31:51;;;;;;;;;;;11.00;75.80;;;;;;5040283;27;87480;-47
2024/03/24 09:34:17;;;;;;;;;;;11.00;75.90;;;;;;5046994;27;86457;-47
2024/03/24 09:36:42;;;;;;;;;;;11.00;75.80;;;;;;5045853;28;87950;-46
2024/03/24 09:39:08;;;;;;;;;;;11.00;76.00;;;;;;5046649;27;87066;-48
2024/03/24 09:41:41;;;;;;;;;;;11.00;75.90;;;;;;5044263;28;87924;-47
2024/03/24 09:44:06;;;;;;;;;;;11.00;76.10;;;;;;5042228;28;87429;-47
2024/03/24 09:46:32;;;;;;;;;;;11.10;76.10;;;;;;5044468;28;86991;-46
2024/03/24 09:48:58;;;;;;;;;;;11.10;76.10;;;;;;5045566;27;88213;-47
2024/03/24 09:51:24;;;;;;;;;;;11.10;76.20;;;;;;5047996;27;88421;-47
2024/03/24 09:53:50;;;;;;;;;;;11.10;76.10;;;;;;5046060;27;86902;-46
2024/03/24 09:56:18;;;;;;;;;;;11.10;76.00;;;;;;5045694;27;87549;-47
2024/03/24 09:58:44;;;;;;;;;;;11.10;76.20;;;;;;5045546;27;86574;-47
2024/03/24 10:01:09;;;;;;;;;;;11.10;76.20;;;;;;5042803;28;86998;-47
2024/03/24 10:03:35;;;;;;;;;;;11.10;76.20;;;;;;5042318;28;87542;-47
2024/03/24 10:06:03;;;;;;;;;;;11.20;76.30;;;;;;5046024;27;87957;-46
2024/03/24 10:08:31;;;;;;;;;;;11.20;76.30;;;;;;5045134;27;87501;-47
2024/03/24 10:11:17;;;;;;;;;;;11.20;76.20;;;;;;5043242;28;87310;-46
2024/03/24 10:13:42;;;;;;;;;;;11.20;76.20;;;;;;5045489;28;87571;-46
2024/03/24 10:16:14;;;;;;;;;;;11.20;76.20;;;;;;5043604;27;87380;-47
2024/03/24 10:18:40;;;;;;;;;;;11.30;76.30;;;;;;5044313;27;87024;-46
2024/03/24 10:21:09;;;;;;;;;;;11.30;76.10;;;;;;5046216;27;86949;-47
2024/03/24 10:23:35;;;;;;;;;;;11.30;76.10;;;;;;5042850;28;86676;-45
2024/03/24 10:26:01;;;;;;;;;;;11.30;76.30;;;;;;5046240;27;87030;-46
2024/03/24 10:28:27;;;;;;;;;;;11.30;76.40;;;;;;5045179;28;87269;-48
2024/03/24 10:30:53;;;;;;;;;;;11.30;76.20;;;;;;5045052;27;90002;-50
2024/03/24 10:33:18;;;;;;;;;;;11.40;76.20;;;;;;5043487;28;87796;-49
2024/03/24 10:35:47;;;;;;;;;;;11.40;76.30;;;;;;5043427;27;88690;-46
2024/03/24 10:38:16;;;;;;;;;;;11.40;76.20;;;;;;5043538;27;87025;-48
2024/03/24 10:40:42;;;;;;;;;;;11.40;76.30;;;;;;5043099;27;86889;-48
2024/03/24 10:43:09;;;;;;;;;;;11.50;76.20;;;;;;5043752;27;87443;-47
2024/03/24 10:45:35;;;;;;;;;;;11.50;76.20;;;;;;5041668;28;87738;-48
2024/03/24 10:48:02;;;;;;;;;;;11.50;76.20;;;;;;5038570;28;87052;-48
2024/03/24 10:50:27;;;;;;;;;;;11.50;76.20;;;;;;5041122;28;88490;-50
2024/03/24 10:52:55;;;;;;;;;;;11.50;76.10;;;;;;5043343;28;87130;-48
2024/03/24 10:55:22;;;;;;;;;;;11.50;76.10;;;;;;5043871;28;88027;-47
2024/03/24 10:57:49;;;;;;;;;;;11.60;76.80;;;;;;5046601;27;87980;-47
2024/03/24 11:00:14;;;;;;;;;;;11.60;76.10;;;;;;5042736;27;86913;-46
2024/03/24 11:02:43;;;;;;;;;;;11.60;76.20;;;;;;5045035;28;89258;-47
2024/03/24 11:05:09;;;;;;;;;;;11.60;76.10;;;;;;5038358;27;87070;-48
2024/03/24 11:07:38;;;;;;;;;;;11.70;76.10;;;;;;5044255;27;87028;-48
2024/03/24 11:10:04;;;;;;;;;;;11.70;76.10;;;;;;5042541;27;87479;-47
2024/03/24 11:12:31;;;;;;;;;;;11.70;76.10;;;;;;5042848;27;86474;-47
2024/03/24 11:14:57;;;;;;;;;;;11.70;76.20;;;;;;5041675;28;86925;-46
2024/03/24 11:17:23;;;;;;;;;;;11.70;76.10;;;;;;5041287;27;87819;-46
2024/03/24 11:19:50;;;;;;;;;;;11.70;76.00;;;;;;5046648;28;87891;-46
2024/03/24 11:22:20;;;;;;;;;;;11.80;75.90;;;;;;5041824;28;87682;-46
2024/03/24 11:24:46;;;;;;;;;;;11.80;76.10;;;;;;5043686;27;87110;-46
2024/03/24 11:27:25;;;;;;;;;;;11.80;76.10;;;;;;5043062;27;86955;-47
2024/03/24 11:29:51;;;;;;;;;;;11.80;75.80;;;;;;5044048;28;87570;-46
2024/03/24 11:32:17;;;;;;;;;;;11.80;76.00;;;;;;5043782;27;87062;-47
2024/03/24 11:34:51;;;;;;;;;;;11.90;76.10;;;;;;5041539;27;87086;-47
2024/03/24 11:37:16;;;;;;;;;;;11.90;76.10;;;;;;5043545;28;86740;-46
2024/03/24 11:39:43;;;;;;;;;;;11.90;76.20;;;;;;5043756;28;86991;-48
2024/03/24 11:42:11;;;;;;;;;;;11.90;76.10;;;;;;5044303;28;87430;-47
2024/03/24 11:44:37;;;;;;;;;;;12.00;76.20;;;;;;5042556;28;87924;-47
2024/03/24 11:47:03;;;;;;;;;;;12.00;76.10;;;;;;5041920;28;87998;-49
2024/03/24 11:49:38;;;;;;;;;;;12.00;76.80;;;;;;5042220;27;87569;-48
2024/03/24 11:52:04;;;;;;;;;;;12.00;76.10;;;;;;5043194;28;87096;-47
2024/03/24 11:54:30;;;;;;;;;;;12.00;76.10;;;;;;5042774;27;87013;-47
2024/03/24 11:56:56;;;;;;;;;;;12.00;75.90;;;;;;5044098;28;88618;-47
2024/03/24 11:59:22;;;;;;;;;;;12.10;76.00;;;;;;5040062;27;87093;-46
2024/03/24 12:01:49;;;;;;;;;;;12.10;75.70;;;;;;5047761;27;86740;-47
2024/03/24 12:04:16;;;;;;;;;;;12.20;76.00;;;;;;5043111;27;87077;-48
2024/03/24 12:06:41;;;;;;;;;;;12.20;76.00;;;;;;5043413;27;86934;-47
2024/03/24 12:09:09;;;;;;;;;;;12.30;76.00;;;;;;5040375;28;88841;-47
2024/03/24 12:11:35;;;;;;;;;;;12.20;75.90;;;;;;5043637;27;87376;-46
2024/03/24 12:14:00;;;;;;;;;;;12.30;75.90;;;;;;5045079;27;87830;-48
2024/03/24 12:16:26;;;;;;;;;;;12.30;75.80;;;;;;5044373;28;88742;-47
2024/03/24 12:18:52;;;;;;;;;;;12.30;75.60;;;;;;5044371;28;86859;-47
2024/03/24 12:21:17;;;;;;;;;;;12.40;75.60;;;;;;5042239;27;87975;-46
2024/03/24 12:23:43;;;;;;;;;;;12.40;75.60;;;;;;5046490;27;87515;-48
2024/03/24 12:26:18;;;;;;;;;;;12.40;75.80;;;;;;5043352;28;87059;-47
2024/03/24 12:28:53;;;;;;;;;;;12.40;75.50;;;;;;5042606;27;88485;-46
2024/03/24 12:31:19;;;;;;;;;;;12.50;75.30;;;;;;5042684;27;88667;-47
2024/03/24 12:33:48;;;;;;;;;;;12.50;75.70;;;;;;5047367;27;88645;-48
2024/03/24 12:36:14;;;;;;;;;;;12.50;75.90;;;;;;5047090;27;87691;-47
2024/03/24 12:38:40;;;;;;;;;;;12.50;75.60;;;;;;5046339;27;87058;-47
2024/03/24 12:41:05;;;;;;;;;;;12.50;75.40;;;;;;5048108;27;86885;-47
2024/03/24 12:43:31;;;;;;;;;;;12.50;75.70;;;;;;5043472;27;88779;-46
2024/03/24 12:45:58;;;;;;;;;;;12.50;75.60;;;;;;5047789;28;87555;-46
2024/03/24 12:48:25;;;;;;;;;;;12.60;75.70;;;;;;5047654;27;87590;-47
2024/03/24 12:50:51;;;;;;;;;;;12.60;75.70;;;;;;5045492;28;87087;-47
2024/03/24 12:53:35;;;;;;;;;;;12.60;75.70;;;;;;5045024;27;86940;-46
2024/03/24 12:56:02;;;;;;;;;;;12.70;75.60;;;;;;5047204;28;87412;-46
2024/03/24 12:58:32;;;;;;;;;;;12.70;75.50;;;;;;5046694;27;87866;-47
2024/03/24 13:00:58;;;;;;;;;;;12.70;75.40;;;;;;5043997;28;87988;-47
2024/03/24 13:03:24;;;;;;;;;;;12.80;75.40;;;;;;5046005;28;86965;-47
2024/03/24 13:05:50;;;;;;;;;;;12.80;75.30;;;;;;5046265;27;87743;-47
2024/03/24 13:08:15;;;;;;;;;;;12.80;75.30;;;;;;5049722;28;86864;-48
2024/03/24 13:10:41;;;;;;;;;;;12.90;75.30;;;;;;5047319;28;86910;-48
2024/03/24 13:13:07;;;;;;;;;;;12.90;75.20;;;;;;5043575;27;87028;-47
2024/03/24 13:15:34;;;;;;;;;;;12.90;75.30;;;;;;5046281;28;87996;-47
2024/03/24 13:18:04;;;;;;;;;;;12.90;75.20;;;;;;5046356;27;86888;-47
2024/03/24 13:20:29;;;;;;;;;;;13.00;75.00;;;;;;5044131;28;87856;-46
2024/03/24 13:22:57;;;;;;;;;;;13.00;74.90;;;;;;5044846;27;89571;-46
2024/03/24 13:25:24;;;;;;;;;;;13.00;74.80;;;;;;5043603;27;86875;-46
2024/03/24 13:27:56;;;;;;;;;;;13.00;75.00;;;;;;5045427;28;88022;-47
2024/03/24 13:30:23;;;;;;;;;;;13.10;75.00;;;;;;5049032;28;87577;-47
2024/03/24 13:32:48;;;;;;;;;;;13.10;74.90;;;;;;5046690;27;87919;-49
2024/03/24 13:35:14;;;;;;;;;;;13.10;75.00;;;;;;5043852;27;87550;-47
2024/03/24 13:37:41;;;;;;;;;;;13.10;74.50;;;;;;5044410;28;86931;-47
2024/03/24 13:40:19;;;;;;;;;;;13.10;74.60;;;;;;5044565;27;86592;-46
2024/03/24 13:42:56;;;;;;;;;;;13.20;74.70;;;;;;5043556;27;87981;-47
2024/03/24 13:45:25;;;;;;;;;;;13.20;74.50;;;;;;5045172;27;86947;-48
2024/03/24 13:48:09;;;;;;;;;;;13.20;74.50;;;;;;5045358;28;88019;-47
2024/03/24 13:50:36;;;;;;;;;;;13.20;74.40;;;;;;5044423;28;88067;-47
2024/03/24 13:53:03;;;;;;;;;;;13.30;74.40;;;;;;5045690;28;87291;-47
2024/03/24 13:55:28;;;;;;;;;;;13.30;74.40;;;;;;5043794;28;87393;-47
2024/03/24 13:57:54;;;;;;;;;;;13.30;74.40;;;;;;5046243;28;87138;-48
2024/03/24 14:00:21;;;;;;;;;;;13.30;74.50;;;;;;5045926;27;87669;-48
2024/03/24 14:02:46;;;;;;;;;;;13.30;74.00;;;;;;5043067;28;88627;-48
2024/03/24 14:05:12;;;;;;;;;;;13.40;74.20;;;;;;5047414;27;86623;-46
2024/03/24 14:07:38;;;;;;;;;;;13.40;74.10;;;;;;5044421;27;87311;-48
2024/03/24 14:10:05;;;;;;;;;;;13.40;73.70;;;;;;5045495;27;88804;-47